Time;durP1;ratioP1;P1;durP2;ratioP2;P2;SDS_P1;SDS_P2;PMS_P1;PMS_P2;Temp;Humidity;BMP_temperature;BMP_pressure;BME280_temperature;BME280_humidity;BME280_pressure;Samples;Min_cycle;Max_cycle;Signal;HPM_P1;HPM_P2
2021/08/19 00:00:35;;;;;;;5.95;4.10;;;;;;;16.49;93.45;98614.44;5061239;28;20092;-69
2021/08/19 00:03:01;;;;;;;11.25;4.45;;;;;;;16.48;93.58;98615.38;5055231;28;20036;-69
2021/08/19 00:05:26;;;;;;;8.52;4.35;;;;;;;16.50;93.36;98616.19;5061922;28;20095;-68
2021/08/19 00:07:52;;;;;;;7.45;4.10;;;;;;;16.48;93.49;98614.50;5063016;28;20071;-68
2021/08/19 00:10:17;;;;;;;7.10;4.00;;;;;;;16.49;93.84;98611.78;5061758;28;20021;-68
2021/08/19 00:12:43;;;;;;;9.80;3.90;;;;;;;16.46;93.66;98617.22;5061691;28;20028;-69
2021/08/19 00:15:09;;;;;;;6.97;3.80;;;;;;;16.44;93.88;98611.13;5063150;28;20021;-69
2021/08/19 00:17:34;;;;;;;8.20;3.90;;;;;;;16.43;93.84;98609.41;5048225;28;20023;-69
2021/08/19 00:20:00;;;;;;;9.45;4.25;;;;;;;16.41;93.91;98603.25;5044839;28;20041;-69
2021/08/19 00:22:25;;;;;;;7.90;3.95;;;;;;;16.39;94.08;98606.91;5063056;28;20331;-69
2021/08/19 00:24:51;;;;;;;4.93;3.20;;;;;;;16.43;93.85;98605.88;5055601;28;20096;-69
2021/08/19 00:27:16;;;;;;;7.82;4.03;;;;;;;16.42;93.48;98607.63;5045891;28;20024;-69
2021/08/19 00:29:41;;;;;;;5.88;4.28;;;;;;;16.46;93.64;98601.28;5061594;28;20021;-69
2021/08/19 00:32:07;;;;;;;6.05;3.97;;;;;;;16.51;93.10;98603.75;5045360;28;20021;-69
2021/08/19 00:34:33;;;;;;;11.32;4.65;;;;;;;16.46;93.40;98605.75;5054539;28;20201;-69
2021/08/19 00:36:58;;;;;;;8.07;4.05;;;;;;;16.49;92.93;98589.69;5062898;28;20028;-69
2021/08/19 00:39:24;;;;;;;12.00;4.05;;;;;;;16.45;93.12;98583.63;5062035;28;20028;-69
2021/08/19 00:41:49;;;;;;;7.95;3.90;;;;;;;16.44;93.24;98586.34;5043476;28;20249;-69
2021/08/19 00:44:16;;;;;;;9.55;4.10;;;;;;;16.42;93.14;98583.72;5043430;28;20371;-69
2021/08/19 00:46:43;;;;;;;7.68;4.35;;;;;;;16.43;93.33;98581.97;5061177;28;20029;-69
2021/08/19 00:49:13;;;;;;;7.93;4.18;;;;;;;16.42;93.29;98578.41;5061407;28;20312;-69
2021/08/19 00:51:43;;;;;;;9.05;4.15;;;;;;;16.37;93.18;98583.06;5062473;28;20080;-69
2021/08/19 00:54:36;;;;;;;11.80;4.75;;;;;;;16.42;92.90;98572.25;5062694;28;20025;-69
2021/08/19 00:57:04;;;;;;;8.13;4.15;;;;;;;16.39;93.12;98567.91;5044079;28;20094;-69
2021/08/19 00:59:33;;;;;;;7.03;4.25;;;;;;;16.39;93.24;98561.75;5059796;28;20101;-69
2021/08/19 01:01:59;;;;;;;6.78;4.32;;;;;;;16.33;93.29;98562.03;5066002;28;20037;-69
2021/08/19 01:04:26;;;;;;;6.30;4.10;;;;;;;16.27;93.95;98563.16;5062197;28;20017;-69
2021/08/19 01:06:51;;;;;;;8.63;4.50;;;;;;;16.28;93.74;98570.19;5046772;28;20299;-69
2021/08/19 01:09:17;;;;;;;12.48;5.32;;;;;;;16.34;93.56;98564.63;5046818;28;20029;-69
2021/08/19 01:11:44;;;;;;;7.03;4.32;;;;;;;16.35;93.53;98576.97;5046729;28;20084;-69
2021/08/19 01:14:12;;;;;;;10.35;5.10;;;;;;;16.33;94.02;98570.84;5060587;28;20051;-69
2021/08/19 01:16:37;;;;;;;9.95;5.32;;;;;;;16.31;94.10;98575.38;5064891;28;20013;-69
2021/08/19 01:19:03;;;;;;;11.90;5.25;;;;;;;16.34;94.39;98564.63;5064873;28;20070;-69
2021/08/19 01:21:28;;;;;;;11.02;5.10;;;;;;;16.38;94.28;98563.53;5064541;28;20220;-69
2021/08/19 01:23:54;;;;;;;9.27;4.68;;;;;;;16.39;94.30;98569.72;5060525;28;20017;-69
2021/08/19 01:26:20;;;;;;;8.57;4.72;;;;;;;16.40;94.27;98564.34;5053707;28;20194;-69
2021/08/19 01:28:48;;;;;;;9.27;4.55;;;;;;;16.37;94.15;98561.81;5062812;28;20080;-69
2021/08/19 01:31:19;;;;;;;12.43;4.97;;;;;;;16.39;94.31;98562.59;5065511;28;20020;-69
2021/08/19 01:33:46;;;;;;;7.33;4.70;;;;;;;16.39;94.53;98562.59;5050231;28;20020;-69
2021/08/19 01:36:14;;;;;;;12.73;5.50;;;;;;;16.40;94.49;98563.47;5064535;28;20013;-69
2021/08/19 01:38:41;;;;;;;9.45;5.57;;;;;;;16.41;94.36;98560.75;5065376;28;20292;-69
2021/08/19 01:41:07;;;;;;;12.70;5.43;;;;;;;16.49;93.74;98555.97;5062501;28;20024;-69
2021/08/19 01:43:33;;;;;;;12.23;5.93;;;;;;;16.42;93.86;98551.84;5047254;28;20190;-69
2021/08/19 01:46:06;;;;;;;11.27;5.95;;;;;;;16.38;94.04;98550.25;5046007;28;20413;-69
2021/08/19 01:48:32;;;;;;;9.30;5.35;;;;;;;16.38;94.12;98547.59;5044939;28;20208;-69
2021/08/19 01:50:57;;;;;;;10.50;5.90;;;;;;;16.39;94.11;98541.34;5045974;28;20080;-69
2021/08/19 01:53:24;;;;;;;9.82;6.10;;;;;;;16.43;94.30;98543.00;5049202;28;20040;-69
2021/08/19 01:55:51;;;;;;;10.13;6.13;;;;;;;16.39;94.29;98536.03;5058679;28;20024;-69
2021/08/19 01:58:17;;;;;;;10.32;6.32;;;;;;;16.42;94.16;98530.59;5045904;28;20314;-68
2021/08/19 02:00:43;;;;;;;12.73;6.38;;;;;;;16.43;93.93;98532.38;5044676;28;20013;-68
2021/08/19 02:03:09;;;;;;;9.52;6.10;;;;;;;16.43;94.01;98536.81;5045564;28;20417;-69
2021/08/19 02:05:38;;;;;;;15.15;6.68;;;;;;;16.41;94.20;98534.19;5061113;28;20013;-69
2021/08/19 02:08:05;;;;;;;14.20;6.57;;;;;;;16.40;94.48;98543.09;5045037;28;20028;-69
2021/08/19 02:10:30;;;;;;;11.40;6.53;;;;;;;16.34;94.32;98537.19;5054329;28;20381;-69
2021/08/19 02:12:55;;;;;;;12.07;6.75;;;;;;;16.39;94.07;98546.66;5065007;28;20020;-69
2021/08/19 02:15:21;;;;;;;12.65;8.05;;;;;;;16.43;94.00;98536.81;5050719;28;20067;-69
2021/08/19 02:17:46;;;;;;;10.85;7.35;;;;;;;16.43;93.97;98540.34;5061777;28;20212;-69
2021/08/19 02:20:12;;;;;;;13.63;7.93;;;;;;;16.43;93.82;98543.00;5044335;28;20021;-69
2021/08/19 02:22:37;;;;;;;14.18;7.80;;;;;;;16.35;94.08;98539.78;5045381;28;20064;-69
2021/08/19 02:25:03;;;;;;;9.98;7.50;;;;;;;16.42;94.24;98540.38;5052867;28;20082;-69
2021/08/19 02:27:29;;;;;;;17.17;8.10;;;;;;;16.33;94.13;98536.31;5045258;28;20309;-69
2021/08/19 02:29:55;;;;;;;12.93;7.72;;;;;;;16.32;94.44;98539.03;5045437;28;20025;-69
2021/08/19 02:32:20;;;;;;;11.43;8.13;;;;;;;16.37;94.40;98540.56;5048147;28;20059;-69
2021/08/19 02:34:46;;;;;;;14.45;8.60;;;;;;;16.33;94.54;98541.63;5064584;28;20327;-69
2021/08/19 02:37:11;;;;;;;10.38;7.40;;;;;;;16.32;94.58;98553.19;5062926;28;20017;-69
2021/08/19 02:39:37;;;;;;;10.20;7.90;;;;;;;16.33;94.58;98546.09;5063105;28;20017;-69
2021/08/19 02:42:02;;;;;;;18.02;9.18;;;;;;;16.33;94.63;98546.94;5064167;28;20216;-69
2021/08/19 02:44:27;;;;;;;15.60;8.75;;;;;;;16.34;94.75;98548.69;5064423;28;20027;-69
2021/08/19 02:46:53;;;;;;;13.52;8.85;;;;;;;16.33;95.00;98538.13;5058186;28;20036;-69
2021/08/19 02:49:18;;;;;;;13.90;10.18;;;;;;;16.34;94.42;98538.06;5044193;28;20277;-69
2021/08/19 02:51:44;;;;;;;14.75;9.90;;;;;;;16.37;94.71;98537.91;5063097;28;20021;-69
2021/08/19 02:54:09;;;;;;;14.70;10.15;;;;;;;16.38;94.73;98536.09;5063037;28;20028;-69
2021/08/19 02:56:35;;;;;;;14.57;10.15;;;;;;;16.35;94.81;98539.78;5062532;28;20009;-69
2021/08/19 02:59:01;;;;;;;16.33;10.13;;;;;;;16.33;94.85;98538.97;5064148;28;20216;-69
2021/08/19 03:01:26;;;;;;;18.52;10.45;;;;;;;16.32;95.41;98534.59;5063923;28;20047;-69
2021/08/19 03:03:52;;;;;;;15.60;10.27;;;;;;;16.26;95.58;98540.16;5062529;28;20100;-69
2021/08/19 03:06:17;;;;;;;14.43;10.13;;;;;;;16.29;95.69;98528.53;5058709;28;20067;-69
2021/08/19 03:08:43;;;;;;;16.63;10.68;;;;;;;16.28;95.90;98533.00;5060629;28;20013;-69
2021/08/19 03:11:08;;;;;;;15.13;10.88;;;;;;;16.22;96.06;98532.41;5061059;28;20071;-69
2021/08/19 03:13:33;;;;;;;18.35;11.70;;;;;;;16.22;96.23;98530.63;5044436;28;20300;-69
2021/08/19 03:15:59;;;;;;;15.55;11.07;;;;;;;16.23;96.39;98539.44;5046950;28;20024;-69
2021/08/19 03:18:24;;;;;;;17.30;11.50;;;;;;;16.20;96.34;98531.63;5063786;28;20039;-69
2021/08/19 03:20:51;;;;;;;16.77;10.45;;;;;;;16.19;96.53;98528.09;5061688;28;20017;-69
2021/08/19 03:23:16;;;;;;;18.42;11.00;;;;;;;16.20;96.57;98529.81;5048077;28;20059;-69
2021/08/19 03:25:41;;;;;;;15.55;10.48;;;;;;;16.19;97.06;98528.09;5044240;28;20013;-69
2021/08/19 03:28:09;;;;;;;16.55;11.23;;;;;;;16.11;97.43;98524.88;5047418;28;20209;-69
2021/08/19 03:30:35;;;;;;;17.80;10.82;;;;;;;16.15;97.71;98537.13;5063581;28;20021;-69
2021/08/19 03:33:06;;;;;;;20.33;11.00;;;;;;;16.17;97.71;98521.97;5063259;28;20017;-69
2021/08/19 03:35:32;;;;;;;15.57;10.40;;;;;;;16.12;97.69;98526.63;5063509;28;20117;-69
2021/08/19 03:37:58;;;;;;;14.90;10.60;;;;;;;16.13;97.84;98525.69;5055282;28;20020;-69
2021/08/19 03:40:23;;;;;;;15.27;10.95;;;;;;;16.12;97.74;98515.13;5063181;28;20096;-69
2021/08/19 03:42:49;;;;;;;16.73;11.02;;;;;;;16.13;97.96;98525.69;5063428;28;20287;-69
2021/08/19 03:45:18;;;;;;;16.23;11.05;;;;;;;16.13;97.70;98512.41;5062174;28;20021;-69
2021/08/19 03:47:44;;;;;;;13.85;10.10;;;;;;;16.13;97.60;98512.41;5049706;28;20013;-69
2021/08/19 03:50:10;;;;;;;14.15;10.23;;;;;;;16.14;97.79;98513.28;5043980;28;20060;-69
2021/08/19 03:52:35;;;;;;;13.63;9.38;;;;;;;16.13;98.06;98519.50;5048428;28;20186;-69
2021/08/19 03:55:01;;;;;;;17.00;10.25;;;;;;;16.08;98.24;98519.75;5063261;28;20320;-69
2021/08/19 03:57:26;;;;;;;13.50;10.20;;;;;;;16.09;98.22;98516.16;5063261;28;20037;-69
2021/08/19 03:59:52;;;;;;;13.00;9.05;;;;;;;16.10;98.08;98520.50;5052855;28;20108;-69
2021/08/19 04:02:17;;;;;;;14.43;10.13;;;;;;;16.10;97.90;98522.31;5042509;28;20041;-69
2021/08/19 04:04:43;;;;;;;14.65;10.45;;;;;;;16.11;97.67;98524.88;5043839;28;20259;-69
2021/08/19 04:07:08;;;;;;;15.90;10.00;;;;;;;16.07;98.06;98523.31;5061587;28;20320;-69
2021/08/19 04:09:34;;;;;;;13.23;9.35;;;;;;;16.10;98.06;98533.78;5056770;28;20313;-69
2021/08/19 04:12:00;;;;;;;15.02;9.65;;;;;;;16.11;98.16;98524.88;5043807;28;20071;-69
2021/08/19 04:14:25;;;;;;;15.85;10.27;;;;;;;16.12;98.32;98531.94;5043739;28;20028;-69
2021/08/19 04:16:51;;;;;;;14.75;10.15;;;;;;;16.07;98.15;98527.75;5042520;28;20044;-69
2021/08/19 04:19:16;;;;;;;14.73;10.07;;;;;;;16.10;98.30;98544.41;5043677;28;20024;-69
2021/08/19 04:21:41;;;;;;;13.40;9.73;;;;;;;16.09;97.82;98542.69;5051709;28;20035;-69
2021/08/19 04:24:07;;;;;;;12.45;9.68;;;;;;;16.07;97.91;98549.84;5048859;28;20096;-69
2021/08/19 04:26:32;;;;;;;14.90;9.85;;;;;;;16.07;98.09;98549.84;5062664;28;20249;-69
2021/08/19 04:28:58;;;;;;;14.18;9.27;;;;;;;16.08;98.11;98556.91;5061847;28;20091;-69
2021/08/19 04:31:23;;;;;;;15.13;9.85;;;;;;;16.02;97.71;98554.50;5061603;28;20082;-69
2021/08/19 04:33:48;;;;;;;13.25;9.15;;;;;;;16.08;97.82;98566.66;5065760;28;20012;-69
2021/08/19 04:36:14;;;;;;;17.30;9.25;;;;;;;16.04;97.80;98571.22;5047444;28;20013;-69
2021/08/19 04:38:39;;;;;;;14.43;9.38;;;;;;;16.06;98.00;98568.50;5046632;28;20041;-69
2021/08/19 04:41:05;;;;;;;10.68;7.93;;;;;;;16.04;97.92;98571.22;5055932;28;20017;-69
2021/08/19 04:43:30;;;;;;;13.75;8.27;;;;;;;16.07;97.98;98573.75;5054639;28;20320;-69
2021/08/19 04:45:56;;;;;;;12.30;7.47;;;;;;;16.03;98.19;98577.47;5045964;28;20017;-69
2021/08/19 04:48:21;;;;;;;9.90;7.40;;;;;;;16.10;98.08;98576.28;5047149;28;20022;-69
2021/08/19 04:50:47;;;;;;;10.18;6.60;;;;;;;16.12;97.93;98579.75;5045968;28;20021;-69
2021/08/19 04:53:12;;;;;;;10.35;6.85;;;;;;;16.09;97.64;98581.66;5047093;28;20025;-69
2021/08/19 04:55:38;;;;;;;11.18;7.35;;;;;;;16.07;97.94;98578.22;5047080;28;20017;-69
2021/08/19 04:58:03;;;;;;;11.35;7.47;;;;;;;16.07;98.05;98586.19;5047039;28;20021;-69
2021/08/19 05:00:29;;;;;;;10.25;7.15;;;;;;;16.04;97.96;98592.47;5045812;28;20025;-69
2021/08/19 05:02:54;;;;;;;14.90;7.88;;;;;;;16.09;98.07;98601.09;5046641;28;20220;-69
2021/08/19 05:05:20;;;;;;;14.07;8.27;;;;;;;16.08;97.70;98599.41;5046956;28;20037;-69
2021/08/19 05:07:45;;;;;;;11.73;6.78;;;;;;;16.15;97.62;98590.22;5046764;28;20029;-69
2021/08/19 05:10:11;;;;;;;11.13;7.35;;;;;;;16.13;97.80;98592.06;5046779;28;20032;-69
2021/08/19 05:12:36;;;;;;;13.52;7.90;;;;;;;16.15;97.90;98597.31;5046705;28;20084;-69
2021/08/19 05:15:02;;;;;;;11.75;7.43;;;;;;;16.16;97.97;98605.22;5046701;28;20048;-69
2021/08/19 05:17:27;;;;;;;12.43;7.72;;;;;;;16.16;97.92;98602.56;5046666;28;20072;-69
2021/08/19 05:19:52;;;;;;;11.48;8.13;;;;;;;16.16;97.98;98596.38;5045437;28;20021;-69
2021/08/19 05:22:18;;;;;;;15.30;8.75;;;;;;;16.16;98.19;98599.91;5046585;28;20049;-69
2021/08/19 05:24:43;;;;;;;13.50;8.35;;;;;;;16.17;98.12;98609.59;5046533;28;20025;-69
2021/08/19 05:27:09;;;;;;;11.27;7.45;;;;;;;16.16;98.18;98609.66;5046397;28;20029;-69
2021/08/19 05:29:34;;;;;;;15.10;8.35;;;;;;;16.17;98.17;98609.59;5046440;28;20216;-69
2021/08/19 05:31:59;;;;;;;13.60;8.32;;;;;;;16.22;97.96;98606.75;5046379;28;20029;-69
2021/08/19 05:34:25;;;;;;;16.73;9.43;;;;;;;16.21;97.76;98611.22;5045187;28;20317;-69
2021/08/19 05:36:50;;;;;;;11.40;8.60;;;;;;;16.22;97.63;98618.25;5046306;28;20021;-69
2021/08/19 05:39:16;;;;;;;15.52;9.50;;;;;;;16.18;97.58;98621.09;5046233;28;20044;-69
2021/08/19 05:41:41;;;;;;;15.00;9.45;;;;;;;16.24;97.68;98624.38;5046198;28;20025;-69
2021/08/19 05:44:07;;;;;;;15.25;9.65;;;;;;;16.25;97.46;98634.06;5045806;28;20062;-69
2021/08/19 05:46:32;;;;;;;17.60;9.13;;;;;;;16.29;97.37;98630.34;5046020;28;20025;-69
2021/08/19 05:48:58;;;;;;;14.27;9.63;;;;;;;16.30;97.29;98632.06;5046102;28;20026;-69
2021/08/19 05:51:24;;;;;;;13.38;8.70;;;;;;;16.29;97.32;98634.78;5046109;28;20021;-69
2021/08/19 05:53:49;;;;;;;17.00;10.13;;;;;;;16.31;97.30;98636.47;5044885;28;20036;-69
2021/08/19 05:56:15;;;;;;;17.85;9.35;;;;;;;16.29;97.28;98651.59;5045969;28;20064;-69
2021/08/19 05:58:40;;;;;;;16.40;10.07;;;;;;;16.29;96.99;98651.59;5044779;28;20228;-69
2021/08/19 06:01:05;;;;;;;13.27;9.65;;;;;;;16.33;97.01;98636.41;5045858;28;20026;-69
2021/08/19 06:03:31;;;;;;;15.98;10.25;;;;;;;16.32;96.76;98640.84;5045597;28;20104;-69
2021/08/19 06:05:56;;;;;;;18.20;10.70;;;;;;;16.33;96.73;98641.72;5045654;28;20022;-69
2021/08/19 06:08:21;;;;;;;14.95;10.23;;;;;;;16.34;97.03;98639.00;5045774;28;20026;-69
2021/08/19 06:10:47;;;;;;;13.45;9.48;;;;;;;16.33;97.45;98647.88;5045664;28;20217;-69
2021/08/19 06:13:13;;;;;;;16.80;10.30;;;;;;;16.35;97.35;98661.97;5044785;28;20032;-69
2021/08/19 06:15:38;;;;;;;13.57;9.05;;;;;;;16.37;97.48;98659.25;5045552;28;20031;-69
2021/08/19 06:18:04;;;;;;;15.27;9.40;;;;;;;16.39;97.72;98652.94;5045531;28;20049;-69
2021/08/19 06:20:30;;;;;;;18.05;9.35;;;;;;;16.43;97.40;98651.94;5044335;28;20059;-69
2021/08/19 06:22:55;;;;;;;19.95;10.43;;;;;;;16.41;97.02;98644.88;5045420;28;20077;-69
2021/08/19 06:25:22;;;;;;;14.88;9.57;;;;;;;16.43;96.84;98649.25;5045391;28;20021;-69
2021/08/19 06:27:47;;;;;;;23.30;10.18;;;;;;;16.46;96.59;98643.78;5044099;28;20026;-69
2021/08/19 06:30:14;;;;;;;14.23;9.23;;;;;;;16.49;96.52;98641.00;5045328;28;20394;-69
2021/08/19 06:32:40;;;;;;;15.63;9.98;;;;;;;16.50;96.87;98655.16;5044070;28;20072;-69
2021/08/19 06:35:07;;;;;;;17.92;9.38;;;;;;;16.52;96.71;98622.28;5045190;28;20052;-69
2021/08/19 06:37:32;;;;;;;15.80;8.93;;;;;;;16.53;96.83;98624.03;5045121;28;20077;-68
2021/08/19 06:39:58;;;;;;;16.42;9.23;;;;;;;16.54;96.93;98611.59;5045109;28;20320;-68
2021/08/19 06:42:23;;;;;;;14.38;8.93;;;;;;;16.58;96.92;98613.19;5045050;28;20033;-68
2021/08/19 06:44:49;;;;;;;18.02;9.05;;;;;;;16.66;95.96;98619.03;5044981;28;20212;-68
2021/08/19 06:47:14;;;;;;;16.75;8.90;;;;;;;16.72;96.24;98616.97;5044878;28;20084;-68
2021/08/19 06:49:41;;;;;;;20.20;9.25;;;;;;;16.65;96.07;98618.16;5044933;28;20033;-68
2021/08/19 06:52:07;;;;;;;12.75;8.57;;;;;;;16.70;96.57;98616.16;5044876;28;20022;-68
2021/08/19 06:54:33;;;;;;;19.00;9.65;;;;;;;16.72;96.68;98611.66;5042998;28;20061;-68
2021/08/19 06:57:00;;;;;;;19.25;10.00;;;;;;;16.72;96.41;98606.34;5043599;28;20025;-68
2021/08/19 06:59:26;;;;;;;12.57;8.13;;;;;;;16.80;96.13;98611.34;5044775;28;20048;-68
2021/08/19 07:01:51;;;;;;;16.95;9.98;;;;;;;16.74;96.43;98607.13;5043334;28;20053;-68
2021/08/19 07:04:16;;;;;;;13.55;9.20;;;;;;;16.75;96.73;98614.19;5044653;28;20032;-68
2021/08/19 07:06:42;;;;;;;13.73;9.30;;;;;;;16.77;96.23;98609.66;5044567;28;20088;-68
2021/08/19 07:09:07;;;;;;;13.07;8.95;;;;;;;16.86;96.38;98605.72;5044550;28;20025;-68
2021/08/19 07:11:33;;;;;;;13.52;8.85;;;;;;;16.90;95.94;98608.16;5044516;28;20033;-68
2021/08/19 07:13:58;;;;;;;14.30;8.90;;;;;;;16.91;95.52;98604.59;5044470;28;20029;-68
2021/08/19 07:16:23;;;;;;;14.00;8.90;;;;;;;16.87;95.63;98613.63;5044446;28;20028;-68
2021/08/19 07:18:50;;;;;;;15.45;8.93;;;;;;;16.79;95.52;98609.59;5044402;28;20046;-68
2021/08/19 07:21:15;;;;;;;12.52;8.23;;;;;;;16.84;96.09;98629.69;5044356;28;20025;-68
2021/08/19 07:23:41;;;;;;;21.83;10.57;;;;;;;16.84;95.81;98624.38;5043165;28;20035;-68
2021/08/19 07:26:06;;;;;;;15.18;8.57;;;;;;;16.87;95.80;98610.13;5044235;28;20021;-68
2021/08/19 07:28:32;;;;;;;21.80;10.07;;;;;;;16.87;94.93;98612.78;5044245;28;20022;-68
2021/08/19 07:30:57;;;;;;;17.48;9.25;;;;;;;16.84;95.37;98612.91;5044270;28;20324;-69
2021/08/19 07:33:22;;;;;;;17.20;9.82;;;;;;;16.87;95.00;98626.91;5044198;28;20025;-69
2021/08/19 07:35:49;;;;;;;18.65;10.48;;;;;;;16.96;96.01;98621.19;5042954;28;20225;-69
2021/08/19 07:38:18;;;;;;;16.10;9.52;;;;;;;17.10;95.21;98632.09;5044126;28;20268;-69
2021/08/19 07:40:44;;;;;;;14.95;9.32;;;;;;;17.08;95.04;98617.97;5044081;28;20028;-69
2021/08/19 07:43:10;;;;;;;15.38;9.85;;;;;;;17.11;95.56;98616.97;5044085;28;20216;-69
2021/08/19 07:45:35;;;;;;;17.25;10.80;;;;;;;17.22;94.95;98610.22;5044034;28;20025;-69
2021/08/19 07:48:09;;;;;;;18.00;10.05;;;;;;;17.40;94.85;98607.66;5042764;28;20033;-69
2021/08/19 07:50:35;;;;;;;15.65;9.88;;;;;;;17.47;94.26;98546.13;5044039;28;20051;-69
2021/08/19 07:53:00;;;;;;;18.13;10.68;;;;;;;17.62;94.15;98640.34;5043961;28;20021;-69
2021/08/19 07:55:25;;;;;;;17.67;10.90;;;;;;;17.82;94.09;98685.50;5043904;28;20029;-69
2021/08/19 07:57:51;;;;;;;19.80;10.65;;;;;;;17.86;93.70;98705.72;5043967;28;20371;-69
2021/08/19 08:00:22;;;;;;;15.93;10.30;;;;;;;17.87;92.82;98598.28;5042719;28;20025;-69
2021/08/19 08:02:48;;;;;;;17.25;9.80;;;;;;;17.82;93.23;98696.16;5043584;28;20037;-69
2021/08/19 08:05:14;;;;;;;16.55;10.50;;;;;;;17.78;92.79;98699.91;5043814;28;20236;-69
2021/08/19 08:07:40;;;;;;;18.73;10.10;;;;;;;17.74;91.77;98661.03;5046316;28;20025;-69
2021/08/19 08:10:06;;;;;;;17.55;9.60;;;;;;;17.76;93.46;98685.78;5047961;28;20025;-69
2021/08/19 08:12:32;;;;;;;17.95;10.85;;;;;;;17.83;92.24;98695.22;5047925;28;20029;-69
2021/08/19 08:14:57;;;;;;;17.20;10.85;;;;;;;17.71;93.08;98727.72;5047856;28;20044;-69
2021/08/19 08:17:23;;;;;;;16.92;11.35;;;;;;;17.70;92.52;98723.34;5047797;28;20029;-69
2021/08/19 08:19:49;;;;;;;19.05;11.80;;;;;;;17.71;92.68;98709.09;5063238;28;20021;-69
2021/08/19 08:22:15;;;;;;;19.15;11.30;;;;;;;17.69;93.01;98679.03;5047753;28;20026;-69
2021/08/19 08:24:41;;;;;;;19.88;11.25;;;;;;;17.71;93.35;98715.28;5047668;28;20033;-69
2021/08/19 08:27:06;;;;;;;16.60;10.18;;;;;;;17.75;92.74;98673.44;5047529;28;20213;-69
2021/08/19 08:29:32;;;;;;;14.15;10.10;;;;;;;17.76;92.34;98675.16;5047565;28;20025;-69
2021/08/19 08:32:01;;;;;;;20.85;10.68;;;;;;;17.78;92.85;98673.28;5047519;28;20029;-69
2021/08/19 08:34:27;;;;;;;17.13;8.77;;;;;;;17.85;92.47;98669.38;5047468;28;20036;-69
2021/08/19 08:36:53;;;;;;;17.38;10.65;;;;;;;18.00;92.34;98668.66;5047481;28;20018;-69
2021/08/19 08:39:20;;;;;;;15.48;9.50;;;;;;;18.03;91.90;98689.81;5047418;28;20085;-69
2021/08/19 08:41:46;;;;;;;12.32;9.32;;;;;;;18.07;92.38;98702.88;5047335;28;20221;-69
2021/08/19 08:44:14;;;;;;;13.65;8.82;;;;;;;18.02;91.73;98693.41;5047298;28;20017;-69
2021/08/19 08:46:40;;;;;;;13.90;8.35;;;;;;;18.15;91.72;98683.88;5047080;28;20332;-69
2021/08/19 08:49:07;;;;;;;13.27;9.40;;;;;;;18.33;93.70;98704.31;5047167;28;20026;-69
2021/08/19 08:51:37;;;;;;;10.77;8.23;;;;;;;18.54;93.15;98689.97;5047178;28;20021;-69
2021/08/19 08:54:02;;;;;;;10.10;6.82;;;;;;;18.74;91.08;98711.13;5047113;28;20045;-69
2021/08/19 08:56:28;;;;;;;9.02;5.20;;;;;;;19.00;89.93;98687.53;5047077;28;20025;-69
2021/08/19 08:58:54;;;;;;;7.35;4.97;;;;;;;18.98;89.69;98725.88;5047043;28;20032;-69
2021/08/19 09:01:19;;;;;;;6.65;4.88;;;;;;;18.94;88.54;98718.97;5045708;28;20351;-69
2021/08/19 09:03:45;;;;;;;5.55;4.20;;;;;;;18.97;88.92;98718.81;5045696;28;20025;-69
2021/08/19 09:06:10;;;;;;;7.85;5.10;;;;;;;19.06;89.47;98681.00;5046815;28;20021;-69
2021/08/19 09:08:39;;;;;;;7.82;5.15;;;;;;;19.28;87.95;98729.66;5046852;28;20040;-69
2021/08/19 09:11:04;;;;;;;10.63;6.47;;;;;;;19.48;88.75;98668.06;5046820;28;20032;-69
2021/08/19 09:13:30;;;;;;;12.02;6.40;;;;;;;20.10;86.44;99611.56;5046830;28;20088;-69
2021/08/19 09:16:14;;;;;;;10.02;6.30;;;;;;;20.56;85.07;98998.81;5046743;28;20057;-69
2021/08/19 09:18:39;;;;;;;7.93;5.18;;;;;;;20.49;82.07;99115.09;5045987;28;20043;-69
2021/08/19 09:21:17;;;;;;;9.85;5.47;;;;;;;20.11;84.02;98672.50;5045446;28;20045;-69
2021/08/19 09:23:42;;;;;;;10.75;7.43;;;;;;;19.86;85.51;98842.22;5046542;28;20060;-69
2021/08/19 09:26:09;;;;;;;12.55;8.10;;;;;;;19.66;86.19;98811.25;5045286;28;20029;-69
2021/08/19 09:28:34;;;;;;;11.18;7.55;;;;;;;19.73;85.07;98833.16;5046468;28;20021;-69
2021/08/19 09:31:08;;;;;;;11.23;8.50;;;;;;;19.73;85.34;98834.03;5046437;28;20045;-69
2021/08/19 09:33:41;;;;;;;10.35;7.25;;;;;;;19.55;84.90;99032.56;5045246;28;20029;-69
2021/08/19 09:36:07;;;;;;;11.10;6.18;;;;;;;19.44;84.14;98810.66;5046363;28;20021;-69
2021/08/19 09:38:36;;;;;;;10.82;5.57;;;;;;;19.43;84.62;98814.28;5046406;28;20063;-69
2021/08/19 09:41:03;;;;;;;11.30;6.15;;;;;;;19.30;85.25;98797.16;5046279;28;20021;-69
2021/08/19 09:43:43;;;;;;;11.98;6.65;;;;;;;19.46;86.42;98843.50;5046234;28;20096;-69
2021/08/19 09:46:12;;;;;;;11.30;6.32;;;;;;;19.82;85.70;98833.53;5046096;28;20341;-69
2021/08/19 09:48:37;;;;;;;16.25;8.27;;;;;;;20.27;86.16;98852.47;5044949;28;20021;-69
2021/08/19 09:51:19;;;;;;;13.25;8.23;;;;;;;20.48;84.13;99233.72;5046131;28;20090;-69
2021/08/19 09:53:50;;;;;;;14.57;8.07;;;;;;;20.53;84.21;98602.34;5046090;28;20325;-69
2021/08/19 09:56:38;;;;;;;9.57;6.90;;;;;;;20.43;81.91;98647.47;5044857;28;20096;-69
2021/08/19 09:59:25;;;;;;;9.02;6.10;;;;;;;20.84;81.24;98643.19;5045906;28;20055;-69
2021/08/19 10:01:56;;;;;;;7.88;4.88;;;;;;;21.05;76.65;98649.97;5044536;28;20048;-69
2021/08/19 10:04:25;;;;;;;9.20;5.05;;;;;;;21.30;78.08;98647.47;5045861;28;20229;-69
2021/08/19 10:06:52;;;;;;;8.57;4.68;;;;;;;21.24;77.93;98974.47;5045706;28;20021;-69
2021/08/19 10:09:17;;;;;;;6.10;4.03;;;;;;;20.94;77.24;98737.19;5045709;28;20056;-69
2021/08/19 10:11:47;;;;;;;9.70;4.35;;;;;;;20.73;77.90;98866.81;5045654;28;20244;-69
2021/08/19 10:14:17;;;;;;;7.82;4.43;;;;;;;21.08;79.63;98703.28;5045635;28;20029;-69
2021/08/19 10:16:44;;;;;;;11.13;4.32;;;;;;;21.61;77.57;98693.78;5044472;28;20248;-69
2021/08/19 10:19:33;;;;;;;6.25;4.72;;;;;;;21.77;77.09;98579.34;5045546;28;20372;-69
2021/08/19 10:22:04;;;;;;;6.18;4.15;;;;;;;21.64;76.80;98621.25;5044379;28;20040;-69
2021/08/19 10:24:34;;;;;;;8.30;4.57;;;;;;;21.53;76.95;98613.03;5044355;28;20029;-69
2021/08/19 10:27:25;;;;;;;7.55;4.80;;;;;;;21.23;78.76;98622.03;5045292;28;20033;-69
2021/08/19 10:29:55;;;;;;;7.63;4.87;;;;;;;21.01;79.40;98636.88;5043142;28;20067;-69
2021/08/19 10:32:25;;;;;;;7.75;5.03;;;;;;;20.90;78.59;98617.88;5045370;28;20021;-71
2021/08/19 10:34:57;;;;;;;5.07;3.67;;;;;;;20.88;78.73;98620.63;5045216;28;20032;-69
2021/08/19 10:37:46;;;;;;;5.97;3.83;;;;;;;20.65;80.22;98598.91;5045223;28;20198;-69
2021/08/19 10:40:20;;;;;;;5.72;3.20;;;;;;;20.66;78.97;98614.88;5047320;28;20321;-69
2021/08/19 10:42:54;;;;;;;4.93;3.15;;;;;;;20.62;79.89;98634.72;5045103;28;20029;-69
2021/08/19 10:45:29;;;;;;;5.25;3.05;;;;;;;20.33;78.13;98626.69;5045049;28;20093;-69
2021/08/19 10:48:15;;;;;;;8.52;2.97;;;;;;;20.34;79.82;98629.28;5044995;28;20328;-69
2021/08/19 10:50:41;;;;;;;5.82;3.00;;;;;;;20.20;78.63;98733.47;5044818;28;20029;-69
2021/08/19 10:53:20;;;;;;;5.93;3.55;;;;;;;20.09;81.18;98810.66;5044896;28;20057;-69
2021/08/19 10:55:48;;;;;;;6.32;3.60;;;;;;;20.17;81.71;98585.78;5044894;28;20071;-69
2021/08/19 10:58:26;;;;;;;5.90;3.70;;;;;;;20.16;81.03;98657.09;5044806;28;20049;-69
2021/08/19 11:00:54;;;;;;;5.32;3.30;;;;;;;20.17;81.11;98631.22;5043570;28;20049;-69
2021/08/19 11:03:35;;;;;;;5.10;3.88;;;;;;;20.19;82.04;98611.47;5044477;28;20091;-69
2021/08/19 11:06:01;;;;;;;7.50;3.80;;;;;;;20.13;80.25;98625.19;5044558;28;20040;-69
2021/08/19 11:08:45;;;;;;;5.70;4.30;;;;;;;20.30;81.31;98633.09;5043439;28;20092;-69
2021/08/19 11:11:13;;;;;;;6.60;4.80;;;;;;;20.39;81.25;98707.41;5060862;28;20240;-69
2021/08/19 11:13:39;;;;;;;6.32;4.72;;;;;;;20.49;82.15;99286.25;5063215;28;20031;-69
2021/08/19 11:16:08;;;;;;;9.52;5.50;;;;;;;20.77;82.85;98906.69;5064423;28;20267;-69
2021/08/19 11:18:35;;;;;;;9.60;5.95;;;;;;;20.96;78.80;98540.81;5064402;28;20048;-69
2021/08/19 11:21:06;;;;;;;8.90;5.95;;;;;;;20.90;80.02;98682.09;5064363;28;20031;-69
2021/08/19 11:23:34;;;;;;;10.47;6.13;;;;;;;21.07;80.66;98669.44;5064638;28;20096;-69
2021/08/19 11:26:10;;;;;;;9.70;6.78;;;;;;;20.87;80.80;98581.47;5064218;28;20055;-69